createdAt,value
2023-04-13T00:01:45.792Z,47.23
2023-04-13T00:04:34.156Z,47.13
2023-04-13T00:07:19.376Z,47.00
2023-04-13T00:10:09.784Z,47.06
2023-04-13T00:12:58.323Z,47.01
2023-04-13T00:15:44.236Z,47.22
2023-04-13T00:18:29.727Z,47.23
2023-04-13T00:21:16.983Z,47.22
2023-04-13T00:24:02.839Z,47.24
2023-04-13T00:26:48.322Z,47.15
2023-04-13T00:29:33.522Z,47.11
2023-04-13T00:32:18.888Z,47.17
2023-04-13T00:35:04.799Z,47.15
2023-04-13T00:37:49.928Z,47.32
2023-04-13T00:40:37.884Z,47.22
2023-04-13T00:43:23.769Z,47.11
2023-04-13T00:46:09.369Z,47.12
2023-04-13T00:48:55.705Z,47.11
2023-04-13T00:51:42.742Z,47.14
2023-04-13T00:54:29.344Z,47.05
2023-04-13T00:57:17.092Z,47.17
2023-04-13T01:00:09.229Z,47.23
2023-04-13T01:02:54.627Z,47.21
2023-04-13T01:06:05.651Z,47.02
2023-04-13T01:09:15.165Z,47.12
2023-04-13T01:12:17.916Z,47.23
2023-04-13T01:15:09.681Z,47.20
2023-04-13T01:18:07.446Z,47.20
2023-04-13T01:20:55.148Z,47.32
2023-04-13T01:23:56.650Z,47.21
2023-04-13T01:26:58.532Z,47.20
2023-04-13T01:29:46.957Z,47.22
2023-04-13T01:32:33.392Z,47.07
2023-04-13T01:35:20.488Z,47.21
2023-04-13T01:38:07.106Z,47.15
2023-04-13T01:40:52.858Z,47.00
2023-04-13T01:43:39.114Z,47.17
2023-04-13T01:46:28.714Z,47.22
2023-04-13T01:49:23.169Z,47.07
2023-04-13T01:52:42.935Z,47.14
2023-04-13T01:55:33.175Z,47.24
2023-04-13T01:58:20.714Z,47.33
2023-04-13T02:01:15.780Z,47.44
2023-04-13T02:04:02.751Z,47.21
2023-04-13T02:06:51.576Z,47.06
2023-04-13T02:09:42.836Z,47.20
2023-04-13T02:12:28.809Z,47.32
2023-04-13T02:15:14.247Z,47.22
2023-04-13T02:17:59.564Z,47.22
2023-04-13T02:20:44.905Z,47.35
2023-04-13T02:23:31.413Z,47.19
2023-04-13T02:26:17.799Z,47.21
2023-04-13T02:29:03.568Z,47.20
2023-04-13T02:31:49.015Z,47.30
2023-04-13T02:34:34.567Z,47.25
2023-04-13T02:37:21.024Z,47.13
2023-04-13T02:40:09.916Z,47.29
2023-04-13T02:42:57.398Z,47.29
2023-04-13T02:45:43.750Z,46.95
2023-04-13T02:48:32.593Z,47.37
2023-04-13T02:51:18.447Z,47.69
2023-04-13T02:54:04.991Z,47.65
2023-04-13T02:56:56.119Z,47.64
2023-04-13T02:59:42.022Z,47.75
2023-04-13T03:02:30.176Z,47.53
2023-04-13T03:05:16.560Z,47.61
2023-04-13T03:08:02.623Z,47.94
2023-04-13T03:10:48.285Z,47.95
2023-04-13T03:13:33.607Z,48.25
2023-04-13T03:16:18.963Z,48.13
2023-04-13T03:19:05.571Z,48.11
2023-04-13T03:21:52.525Z,48.23
2023-04-13T03:24:42.055Z,48.38
2023-04-13T03:27:29.448Z,48.54
2023-04-13T03:30:14.674Z,48.59
2023-04-13T03:33:09.708Z,48.69
2023-04-13T03:35:57.836Z,48.93
2023-04-13T03:38:49.652Z,48.62
2023-04-13T03:41:36.248Z,49.00
2023-04-13T03:44:21.816Z,48.91
2023-04-13T03:47:09.596Z,49.12
2023-04-13T03:49:55.704Z,49.24
2023-04-13T03:52:41.302Z,49.46
2023-04-13T03:55:27.240Z,49.96
2023-04-13T03:58:15.903Z,49.88
2023-04-13T04:01:01.216Z,49.78
2023-04-13T04:04:02.867Z,50.16
2023-04-13T04:06:49.601Z,49.89
2023-04-13T04:09:36.833Z,49.96
2023-04-13T04:12:22.802Z,51.05
2023-04-13T04:15:09.452Z,49.63
2023-04-13T04:17:59.357Z,49.79
2023-04-13T04:20:45.194Z,49.92
2023-04-13T04:23:31.083Z,49.77
2023-04-13T04:26:25.669Z,49.37
2023-04-13T04:29:22.218Z,49.85
2023-04-13T04:32:12.829Z,49.56
2023-04-13T04:34:58.261Z,49.70
2023-04-13T04:37:50.014Z,49.78
2023-04-13T04:40:38.056Z,49.36
2023-04-13T04:43:30.576Z,49.59
2023-04-13T04:46:17.089Z,49.28
2023-04-13T04:49:08.623Z,48.96
2023-04-13T04:51:55.247Z,49.13
2023-04-13T04:54:44.945Z,49.03
2023-04-13T04:57:30.938Z,48.95
2023-04-13T05:00:17.304Z,49.01
2023-04-13T05:03:12.079Z,49.04
2023-04-13T05:06:02.517Z,48.50
2023-04-13T05:08:50.898Z,48.57
2023-04-13T05:11:36.780Z,48.37
2023-04-13T05:14:24.395Z,48.75
2023-04-13T05:17:13.120Z,48.54
2023-04-13T05:19:59.470Z,48.72
2023-04-13T05:22:54.249Z,48.85
2023-04-13T05:25:39.808Z,48.63
2023-04-13T05:28:34.317Z,48.99
2023-04-13T05:31:20.292Z,48.80
2023-04-13T05:34:06.089Z,48.39
2023-04-13T05:36:53.689Z,48.63
2023-04-13T05:39:40.076Z,48.60
2023-04-13T05:42:26.799Z,48.63
2023-04-13T05:45:12.117Z,48.71
2023-04-13T05:48:13.696Z,48.45
2023-04-13T05:51:01.371Z,48.53
2023-04-13T05:53:50.703Z,48.69
2023-04-13T05:56:37.154Z,48.65
2023-04-13T05:59:23.977Z,48.62
2023-04-13T06:02:09.862Z,48.56
2023-04-13T06:04:56.450Z,48.55
2023-04-13T06:07:44.901Z,48.63
2023-04-13T06:10:30.731Z,48.61
2023-04-13T06:13:16.193Z,48.63
2023-04-13T06:16:01.490Z,48.61
2023-04-13T06:18:46.726Z,48.56
2023-04-13T06:21:32.036Z,48.46
2023-04-13T06:24:18.069Z,48.54
2023-04-13T06:27:04.703Z,48.56
2023-04-13T06:29:51.260Z,48.50
2023-04-13T06:32:37.112Z,48.74
2023-04-13T06:35:23.331Z,48.51
2023-04-13T06:38:10.142Z,48.42
2023-04-13T06:41:07.026Z,48.40
2023-04-13T06:43:56.278Z,48.62
2023-04-13T06:46:50.498Z,48.50
2023-04-13T06:49:38.942Z,48.43
2023-04-13T06:52:24.844Z,48.35
2023-04-13T06:55:12.546Z,48.34
2023-04-13T06:57:59.334Z,48.27
2023-04-13T07:00:44.881Z,48.38
2023-04-13T07:03:30.562Z,48.34
2023-04-13T07:06:16.798Z,48.19
2023-04-13T07:09:02.225Z,48.31
2023-04-13T07:11:49.325Z,48.10
2023-04-13T07:14:39.125Z,48.26
2023-04-13T07:17:27.453Z,48.09
2023-04-13T07:20:13.550Z,48.22
2023-04-13T07:22:59.021Z,48.26
2023-04-13T07:25:44.714Z,47.79
2023-04-13T07:28:37.291Z,48.01
2023-04-13T07:31:22.837Z,47.97
2023-04-13T07:34:10.423Z,47.97
2023-04-13T07:37:01.164Z,47.94
2023-04-13T07:39:47.940Z,48.09
2023-04-13T07:42:35.927Z,48.09
2023-04-13T07:45:21.791Z,48.04
2023-04-13T07:48:07.281Z,48.23
2023-04-13T07:50:55.307Z,48.29
2023-04-13T07:53:42.047Z,48.27
2023-04-13T07:56:27.947Z,48.33
2023-04-13T07:59:14.059Z,48.19
2023-04-13T08:02:00.868Z,48.36
2023-04-13T08:04:49.360Z,48.31
2023-04-13T08:07:39.869Z,48.30
2023-04-13T08:10:26.056Z,47.97
2023-04-13T08:13:14.326Z,48.58
2023-04-13T08:16:01.432Z,48.40
2023-04-13T08:18:47.657Z,48.43
2023-04-13T08:21:32.957Z,48.48
2023-04-13T08:24:20.662Z,48.35
2023-04-13T08:27:07.613Z,48.32
2023-04-13T08:29:57.031Z,48.48
2023-04-13T08:32:42.371Z,48.57
2023-04-13T08:35:28.789Z,48.31
2023-04-13T08:38:16.514Z,48.65
2023-04-13T08:41:09.316Z,48.50
2023-04-13T08:43:56.548Z,48.66
2023-04-13T08:46:46.668Z,48.47
2023-04-13T08:49:36.909Z,48.83
2023-04-13T08:52:26.584Z,48.79
2023-04-13T08:55:12.941Z,48.65
2023-04-13T08:58:03.646Z,48.63
2023-04-13T09:00:50.992Z,48.57
2023-04-13T09:03:48.783Z,49.00
2023-04-13T09:06:41.368Z,48.65
2023-04-13T09:09:29.858Z,48.68
2023-04-13T09:12:15.550Z,48.48
2023-04-13T09:15:03.109Z,48.56
2023-04-13T09:18:20.513Z,48.70
2023-04-13T09:21:13.149Z,48.77
2023-04-13T09:23:59.704Z,48.62
2023-04-13T09:26:46.782Z,48.62
2023-04-13T09:29:32.325Z,48.70
2023-04-13T09:32:22.699Z,48.66
2023-04-13T09:35:09.775Z,48.65
2023-04-13T09:37:56.134Z,48.71
2023-04-13T09:40:49.243Z,48.69
2023-04-13T09:43:36.687Z,48.76
2023-04-13T09:46:22.769Z,48.78
2023-04-13T09:49:09.141Z,48.69
2023-04-13T09:51:55.884Z,48.78
2023-04-13T09:54:41.554Z,48.80
2023-04-13T09:57:28.148Z,48.77
2023-04-13T10:00:19.372Z,48.61
2023-04-13T10:03:06.599Z,48.66
2023-04-13T10:05:59.372Z,48.70
2023-04-13T10:08:46.523Z,48.72
2023-04-13T10:11:37.687Z,48.58
2023-04-13T10:14:31.697Z,48.84
2023-04-13T10:17:48.204Z,48.83
2023-04-13T10:20:34.695Z,48.92
2023-04-13T10:23:21.602Z,48.87
2023-04-13T10:26:07.422Z,48.91
2023-04-13T10:28:53.116Z,48.84
2023-04-13T10:31:39.252Z,48.44
2023-04-13T10:34:27.208Z,48.74
2023-04-13T10:37:21.102Z,48.83
2023-04-13T10:40:10.175Z,48.88
2023-04-13T10:42:55.450Z,48.70
2023-04-13T10:45:40.778Z,48.73
2023-04-13T10:48:26.259Z,48.69
2023-04-13T10:51:11.907Z,48.56
2023-04-13T10:54:04.466Z,48.74
2023-04-13T10:56:57.877Z,48.69
2023-04-13T10:59:59.138Z,48.88
2023-04-13T11:02:45.732Z,48.92
2023-04-13T11:05:31.063Z,48.63
2023-04-13T11:08:18.966Z,47.05
2023-04-13T11:11:05.576Z,47.75
2023-04-13T11:13:51.243Z,48.88
2023-04-13T11:16:46.091Z,49.29
2023-04-13T11:19:31.550Z,49.47
2023-04-13T11:22:18.365Z,49.44
2023-04-13T11:25:08.847Z,49.44
2023-04-13T11:27:59.179Z,49.56
2023-04-13T11:30:56.102Z,49.88
2023-04-13T11:33:43.621Z,49.96
2023-04-13T11:36:30.436Z,49.64
2023-04-13T11:39:15.711Z,49.95
2023-04-13T11:42:06.013Z,49.91
2023-04-13T11:44:53.615Z,50.02
2023-04-13T11:47:39.044Z,50.07
2023-04-13T11:50:25.833Z,49.94
2023-04-13T11:53:11.611Z,49.79
2023-04-13T11:55:58.099Z,49.99
2023-04-13T11:58:43.610Z,49.76
2023-04-13T12:01:34.146Z,49.97
2023-04-13T12:04:21.509Z,49.99
2023-04-13T12:07:13.061Z,49.88
2023-04-13T12:10:05.534Z,50.19
2023-04-13T12:13:17.021Z,50.43
2023-04-13T12:16:09.584Z,50.28
2023-04-13T12:19:09.618Z,50.32
2023-04-13T12:21:57.596Z,50.40
2023-04-13T12:24:45.461Z,50.19
2023-04-13T12:27:40.316Z,50.12
2023-04-13T12:30:26.449Z,50.30
2023-04-13T12:33:12.250Z,49.98
2023-04-13T12:35:57.687Z,50.13
2023-04-13T12:38:43.448Z,50.13
2023-04-13T12:41:28.862Z,50.37
2023-04-13T12:44:14.934Z,49.90
2023-04-13T12:47:00.503Z,49.89
2023-04-13T12:49:46.090Z,49.84
2023-04-13T12:52:32.378Z,49.90
2023-04-13T12:55:18.805Z,49.56
2023-04-13T12:58:04.877Z,49.44
2023-04-13T13:00:50.866Z,48.80
2023-04-13T13:03:37.154Z,49.20
2023-04-13T13:06:23.085Z,49.28
2023-04-13T13:09:09.486Z,49.14
2023-04-13T13:11:56.161Z,49.02
2023-04-13T13:14:41.873Z,49.73
2023-04-13T13:17:28.527Z,49.06
2023-04-13T13:20:14.152Z,48.83
2023-04-13T13:22:59.584Z,48.69
2023-04-13T13:25:52.730Z,48.73
2023-04-13T13:28:42.725Z,47.95
2023-04-13T13:31:28.035Z,46.89
2023-04-13T13:34:13.531Z,47.82
2023-04-13T13:36:59.001Z,47.80
2023-04-13T13:39:44.915Z,48.06
2023-04-13T13:42:40.422Z,48.12
2023-04-13T13:45:33.626Z,47.95
2023-04-13T13:48:22.123Z,47.92
2023-04-13T13:51:16.347Z,48.07
2023-04-13T13:54:02.008Z,47.78
2023-04-13T13:56:47.210Z,47.84
2023-04-13T13:59:32.597Z,47.95
2023-04-13T14:02:18.089Z,48.01
2023-04-13T14:05:03.503Z,48.28
2023-04-13T14:07:49.484Z,48.36
2023-04-13T14:10:38.135Z,48.44
2023-04-13T14:13:23.412Z,48.88
2023-04-13T14:16:09.005Z,48.46
2023-04-13T14:18:54.681Z,49.16
2023-04-13T14:21:40.808Z,49.31
2023-04-13T14:24:26.626Z,49.73
2023-04-13T14:27:12.287Z,48.93
2023-04-13T14:29:58.064Z,49.51
2023-04-13T14:32:44.105Z,50.63
2023-04-13T14:35:29.964Z,45.60
2023-04-13T14:38:15.749Z,48.38
2023-04-13T14:41:01.266Z,49.68
2023-04-13T14:43:46.611Z,50.21
2023-04-13T14:46:31.954Z,50.30
2023-04-13T14:49:17.848Z,49.99
2023-04-13T14:52:07.340Z,49.90
2023-04-13T14:54:57.286Z,49.97
2023-04-13T14:57:42.830Z,50.16
2023-04-13T15:00:40.234Z,49.36
2023-04-13T15:03:26.618Z,49.35
2023-04-13T15:06:12.187Z,48.87
2023-04-13T15:08:58.626Z,48.25
2023-04-13T15:11:44.089Z,44.02
2023-04-13T15:14:29.671Z,42.70
2023-04-13T15:17:14.856Z,42.64
2023-04-13T15:20:00.991Z,44.30
2023-04-13T15:22:46.415Z,44.83
2023-04-13T15:25:31.888Z,44.94
2023-04-13T15:28:18.661Z,45.43
2023-04-13T15:31:04.164Z,45.68
2023-04-13T15:33:49.499Z,45.92
2023-04-13T15:36:38.589Z,45.95
2023-04-13T15:39:24.222Z,45.81
2023-04-13T15:42:09.901Z,47.53
2023-04-13T15:44:55.314Z,47.81
2023-04-13T15:47:41.440Z,46.93
2023-04-13T15:50:26.798Z,46.89
2023-04-13T15:53:11.973Z,46.85
2023-04-13T15:55:57.252Z,46.11
2023-04-13T15:58:42.651Z,45.39
2023-04-13T16:01:27.839Z,45.30
2023-04-13T16:04:13.300Z,45.49
2023-04-13T16:07:12.078Z,45.68
2023-04-13T16:10:01.465Z,46.79
2023-04-13T16:12:50.011Z,47.38
2023-04-13T16:15:36.916Z,47.39
2023-04-13T16:18:31.959Z,46.93
2023-04-13T16:21:19.537Z,47.20
2023-04-13T16:24:06.836Z,47.51
2023-04-13T16:26:52.432Z,47.94
2023-04-13T16:29:42.732Z,47.85
2023-04-13T16:32:29.343Z,47.41
2023-04-13T16:35:14.872Z,47.54
2023-04-13T16:38:00.851Z,47.70
2023-04-13T16:40:46.508Z,47.95
2023-04-13T16:43:32.172Z,47.95
2023-04-13T16:46:19.288Z,47.88
2023-04-13T16:49:04.832Z,47.90
2023-04-13T16:51:50.499Z,47.80
2023-04-13T16:54:36.854Z,47.82
2023-04-13T16:57:22.384Z,47.74
2023-04-13T17:00:10.535Z,47.84
2023-04-13T17:02:56.259Z,47.73
2023-04-13T17:05:41.742Z,47.63
2023-04-13T17:08:30.401Z,47.80
2023-04-13T17:11:16.598Z,47.75
2023-04-13T17:14:01.884Z,47.66
2023-04-13T17:16:47.469Z,47.37
2023-04-13T17:19:33.249Z,47.20
2023-04-13T17:22:18.922Z,47.17
2023-04-13T17:25:06.425Z,46.80
2023-04-13T17:27:53.398Z,46.76
2023-04-13T17:30:38.797Z,46.71
2023-04-13T17:33:24.482Z,47.16
2023-04-13T17:36:09.796Z,47.14
2023-04-13T17:38:55.076Z,47.19
2023-04-13T17:41:41.674Z,46.89
2023-04-13T17:44:27.273Z,46.94
2023-04-13T17:47:12.449Z,46.53
2023-04-13T17:49:59.250Z,46.61
2023-04-13T17:52:44.839Z,46.48
2023-04-13T17:55:31.214Z,46.49
2023-04-13T17:58:16.506Z,46.48
2023-04-13T18:01:09.696Z,46.41
2023-04-13T18:03:55.371Z,46.17
2023-04-13T18:06:41.204Z,46.20
2023-04-13T18:09:28.268Z,46.28
2023-04-13T18:12:14.048Z,46.12
2023-04-13T18:14:59.755Z,45.96
2023-04-13T18:17:44.914Z,45.95
2023-04-13T18:20:30.387Z,45.97
2023-04-13T18:23:16.273Z,46.14
2023-04-13T18:26:08.953Z,46.34
2023-04-13T18:28:54.975Z,46.33
2023-04-13T18:31:40.611Z,46.41
2023-04-13T18:34:43.324Z,46.24
2023-04-13T18:37:32.384Z,46.19
2023-04-13T18:40:18.234Z,46.33
2023-04-13T18:43:03.788Z,46.79
2023-04-13T18:45:49.653Z,46.60
2023-04-13T18:48:36.097Z,47.15
2023-04-13T18:51:22.334Z,47.05
2023-04-13T18:54:07.866Z,46.86
2023-04-13T18:56:53.654Z,47.03
2023-04-13T18:59:39.253Z,46.97
2023-04-13T19:02:25.490Z,46.94
2023-04-13T19:05:13.419Z,46.83
2023-04-13T19:08:24.318Z,46.89
2023-04-13T19:11:10.081Z,46.90
2023-04-13T19:13:55.374Z,47.00
2023-04-13T19:16:41.662Z,46.89
2023-04-13T19:19:27.108Z,47.03
2023-04-13T19:22:12.458Z,46.92
2023-04-13T19:24:58.164Z,47.16
2023-04-13T19:27:45.330Z,46.99
2023-04-13T19:30:31.113Z,47.17
2023-04-13T19:33:16.759Z,47.32
2023-04-13T19:36:05.803Z,47.15
2023-04-13T19:38:52.068Z,47.14
2023-04-13T19:41:39.220Z,47.26
2023-04-13T19:44:24.712Z,47.22
2023-04-13T19:47:11.028Z,47.25
2023-04-13T19:49:56.967Z,47.34
2023-04-13T19:52:42.610Z,47.36
2023-04-13T19:55:28.426Z,47.34
2023-04-13T19:58:13.591Z,47.46
2023-04-13T20:00:59.497Z,47.44
2023-04-13T20:03:45.421Z,47.54
2023-04-13T20:06:33.056Z,47.33
2023-04-13T20:09:18.509Z,47.41
2023-04-13T20:12:05.520Z,47.27
2023-04-13T20:14:51.068Z,47.41
2023-04-13T20:17:36.347Z,47.40
2023-04-13T20:20:23.812Z,47.34
2023-04-13T20:23:09.651Z,47.25
2023-04-13T20:25:56.064Z,47.52
2023-04-13T20:28:41.471Z,47.79
2023-04-13T20:31:29.033Z,47.65
2023-04-13T20:34:14.621Z,47.73
2023-04-13T20:36:59.906Z,47.85
2023-04-13T20:39:51.146Z,47.89
2023-04-13T20:42:36.775Z,47.92
2023-04-13T20:45:23.269Z,48.03
2023-04-13T20:50:59.042Z,48.14
2023-04-13T20:53:45.149Z,48.05
2023-04-13T20:56:30.900Z,48.20
2023-04-13T20:59:17.005Z,48.17
2023-04-13T21:02:03.074Z,48.30
2023-04-13T21:04:48.539Z,47.99
2023-04-13T21:07:34.281Z,48.27
2023-04-13T21:10:19.876Z,48.08
2023-04-13T21:13:05.980Z,48.21
2023-04-13T21:15:51.453Z,48.29
2023-04-13T21:18:36.835Z,48.28
2023-04-13T21:21:23.503Z,48.23
2023-04-13T21:24:09.312Z,48.41
2023-04-13T21:26:54.749Z,48.37
2023-04-13T21:29:39.997Z,48.34
2023-04-13T21:32:25.444Z,48.29
2023-04-13T21:35:11.525Z,48.36
2023-04-13T21:37:56.751Z,48.21
2023-04-13T21:40:42.089Z,48.28
2023-04-13T21:43:27.478Z,48.17
2023-04-13T21:46:14.171Z,48.69
2023-04-13T21:49:00.050Z,48.27
2023-04-13T21:51:45.861Z,48.23
2023-04-13T21:54:31.369Z,48.14
2023-04-13T21:57:16.757Z,48.22
2023-04-13T22:00:02.963Z,48.22
2023-04-13T22:02:57.245Z,48.11
2023-04-13T22:05:42.522Z,48.15
2023-04-13T22:08:27.977Z,48.05
2023-04-13T22:11:13.329Z,48.05
2023-04-13T22:14:00.218Z,48.13
2023-04-13T22:16:48.609Z,48.03
2023-04-13T22:19:34.123Z,47.92
2023-04-13T22:22:19.309Z,48.08
2023-04-13T22:25:04.696Z,47.95
2023-04-13T22:27:51.591Z,48.09
2023-04-13T22:30:37.683Z,48.00
2023-04-13T22:33:22.979Z,47.97
2023-04-13T22:36:20.598Z,48.06
2023-04-13T22:39:05.991Z,47.92
2023-04-13T22:41:51.309Z,48.02
2023-04-13T22:44:36.545Z,47.93
2023-04-13T22:47:21.788Z,47.96
2023-04-13T22:50:07.537Z,48.03
2023-04-13T22:52:55.721Z,48.13
2023-04-13T22:55:41.390Z,48.18
2023-04-13T22:58:26.916Z,48.16
2023-04-13T23:01:12.412Z,48.41
2023-04-13T23:03:57.982Z,48.24
2023-04-13T23:06:43.537Z,48.21
2023-04-13T23:09:29.149Z,48.18
2023-04-13T23:12:14.762Z,48.24
2023-04-13T23:15:00.036Z,48.15
2023-04-13T23:17:45.422Z,48.36
2023-04-13T23:20:31.107Z,48.29
2023-04-13T23:23:16.422Z,48.51
2023-04-13T23:26:01.671Z,48.43
2023-04-13T23:28:47.462Z,48.51
2023-04-13T23:31:32.732Z,48.47
2023-04-13T23:34:17.966Z,48.39
2023-04-13T23:37:03.576Z,48.47
2023-04-13T23:39:48.998Z,48.61
2023-04-13T23:42:34.227Z,48.51
2023-04-13T23:45:19.514Z,48.50
2023-04-13T23:48:04.692Z,48.56
2023-04-13T23:50:50.100Z,48.64
2023-04-13T23:53:35.679Z,48.59
2023-04-13T23:56:21.271Z,48.61
2023-04-13T23:59:06.558Z,48.80
